sensor_id;sensor_type;location;lat;lon;timestamp;temperature;humidity
29917;DHT22;16786;49.466;11.068;2023-11-19T00:01:50;6.20;99.90
29917;DHT22;16786;49.466;11.068;2023-11-19T00:04:17;6.20;99.90
29917;DHT22;16786;49.466;11.068;2023-11-19T00:06:44;6.20;99.90
29917;DHT22;16786;49.466;11.068;2023-11-19T00:09:11;6.20;99.90
29917;DHT22;16786;49.466;11.068;2023-11-19T00:11:39;6.20;99.90
29917;DHT22;16786;49.466;11.068;2023-11-19T00:14:05;6.10;99.90
29917;DHT22;16786;49.466;11.068;2023-11-19T00:16:35;6.10;99.90
29917;DHT22;16786;49.466;11.068;2023-11-19T00:19:02;6.20;99.90
29917;DHT22;16786;49.466;11.068;2023-11-19T00:21:31;6.20;99.90
29917;DHT22;16786;49.466;11.068;2023-11-19T00:24:00;6.20;99.90
29917;DHT22;16786;49.466;11.068;2023-11-19T00:26:27;6.20;99.90
29917;DHT22;16786;49.466;11.068;2023-11-19T00:28:54;6.20;99.90
29917;DHT22;16786;49.466;11.068;2023-11-19T00:31:22;6.20;99.90
29917;DHT22;16786;49.466;11.068;2023-11-19T00:33:50;6.20;99.90
29917;DHT22;16786;49.466;11.068;2023-11-19T00:36:17;6.20;99.90
29917;DHT22;16786;49.466;11.068;2023-11-19T00:38:44;6.20;99.90
29917;DHT22;16786;49.466;11.068;2023-11-19T00:41:11;6.20;99.90
29917;DHT22;16786;49.466;11.068;2023-11-19T00:43:38;6.20;99.90
29917;DHT22;16786;49.466;11.068;2023-11-19T00:46:07;6.20;99.90
29917;DHT22;16786;49.466;11.068;2023-11-19T00:48:34;6.20;99.90
29917;DHT22;16786;49.466;11.068;2023-11-19T00:51:01;6.20;99.90
29917;DHT22;16786;49.466;11.068;2023-11-19T00:53:28;6.20;99.90
29917;DHT22;16786;49.466;11.068;2023-11-19T00:55:55;6.20;99.90
29917;DHT22;16786;49.466;11.068;2023-11-19T00:58:22;6.30;99.90
29917;DHT22;16786;49.466;11.068;2023-11-19T01:00:49;6.30;99.90
29917;DHT22;16786;49.466;11.068;2023-11-19T01:03:16;6.30;99.90
29917;DHT22;16786;49.466;11.068;2023-11-19T01:05:43;6.30;99.90
29917;DHT22;16786;49.466;11.068;2023-11-19T01:08:11;6.30;99.90
29917;DHT22;16786;49.466;11.068;2023-11-19T01:10:38;6.30;99.90
29917;DHT22;16786;49.466;11.068;2023-11-19T01:13:05;6.40;99.90
29917;DHT22;16786;49.466;11.068;2023-11-19T01:15:33;6.40;99.90
29917;DHT22;16786;49.466;11.068;2023-11-19T01:18:00;6.40;99.90
29917;DHT22;16786;49.466;11.068;2023-11-19T01:20:31;6.40;99.90
29917;DHT22;16786;49.466;11.068;2023-11-19T01:23:01;6.40;99.90
29917;DHT22;16786;49.466;11.068;2023-11-19T01:25:28;6.40;99.90
29917;DHT22;16786;49.466;11.068;2023-11-19T01:27:55;6.40;99.90
29917;DHT22;16786;49.466;11.068;2023-11-19T01:30:25;6.50;99.90
29917;DHT22;16786;49.466;11.068;2023-11-19T01:32:52;6.40;99.90
29917;DHT22;16786;49.466;11.068;2023-11-19T01:35:19;6.40;99.90
29917;DHT22;16786;49.466;11.068;2023-11-19T01:37:46;6.40;99.90
29917;DHT22;16786;49.466;11.068;2023-11-19T01:40:13;6.40;99.90
29917;DHT22;16786;49.466;11.068;2023-11-19T01:42:40;6.50;99.90
29917;DHT22;16786;49.466;11.068;2023-11-19T01:45:08;6.50;99.90
29917;DHT22;16786;49.466;11.068;2023-11-19T01:47:37;6.50;99.90
29917;DHT22;16786;49.466;11.068;2023-11-19T01:50:06;6.50;99.90
29917;DHT22;16786;49.466;11.068;2023-11-19T01:52:35;6.50;99.90
29917;DHT22;16786;49.466;11.068;2023-11-19T01:55:08;6.50;99.90
29917;DHT22;16786;49.466;11.068;2023-11-19T01:57:36;6.50;99.90
29917;DHT22;16786;49.466;11.068;2023-11-19T02:00:09;6.50;99.90
29917;DHT22;16786;49.466;11.068;2023-11-19T02:02:43;6.50;99.90
29917;DHT22;16786;49.466;11.068;2023-11-19T02:05:12;6.50;99.90
29917;DHT22;16786;49.466;11.068;2023-11-19T02:07:40;6.50;99.90
29917;DHT22;16786;49.466;11.068;2023-11-19T02:10:07;6.50;99.90
29917;DHT22;16786;49.466;11.068;2023-11-19T02:12:42;6.50;99.90
29917;DHT22;16786;49.466;11.068;2023-11-19T02:15:10;6.50;99.90
29917;DHT22;16786;49.466;11.068;2023-11-19T02:17:37;6.50;99.90
29917;DHT22;16786;49.466;11.068;2023-11-19T02:20:05;6.50;99.90
29917;DHT22;16786;49.466;11.068;2023-11-19T02:22:38;6.50;99.90
29917;DHT22;16786;49.466;11.068;2023-11-19T02:25:07;6.60;99.90
29917;DHT22;16786;49.466;11.068;2023-11-19T02:30:11;6.60;99.90
29917;DHT22;16786;49.466;11.068;2023-11-19T02:32:38;6.60;99.90
29917;DHT22;16786;49.466;11.068;2023-11-19T02:35:08;6.60;99.90
29917;DHT22;16786;49.466;11.068;2023-11-19T02:37:35;6.60;99.90
29917;DHT22;16786;49.466;11.068;2023-11-19T02:40:02;6.60;99.90
29917;DHT22;16786;49.466;11.068;2023-11-19T02:42:31;6.60;99.90
29917;DHT22;16786;49.466;11.068;2023-11-19T02:44:58;6.60;99.90
29917;DHT22;16786;49.466;11.068;2023-11-19T02:47:25;6.60;99.90
29917;DHT22;16786;49.466;11.068;2023-11-19T02:49:52;6.60;99.90
29917;DHT22;16786;49.466;11.068;2023-11-19T02:52:20;6.60;99.90
29917;DHT22;16786;49.466;11.068;2023-11-19T02:54:47;6.70;99.90
29917;DHT22;16786;49.466;11.068;2023-11-19T02:57:14;6.60;99.90
29917;DHT22;16786;49.466;11.068;2023-11-19T02:59:44;6.70;99.90
29917;DHT22;16786;49.466;11.068;2023-11-19T03:02:11;6.70;99.90
29917;DHT22;16786;49.466;11.068;2023-11-19T03:04:39;6.70;99.90
29917;DHT22;16786;49.466;11.068;2023-11-19T03:07:10;6.70;99.90
29917;DHT22;16786;49.466;11.068;2023-11-19T03:09:38;6.70;99.90
29917;DHT22;16786;49.466;11.068;2023-11-19T03:12:07;6.70;99.90
29917;DHT22;16786;49.466;11.068;2023-11-19T03:14:34;6.80;99.90
29917;DHT22;16786;49.466;11.068;2023-11-19T03:17:02;6.70;99.90
29917;DHT22;16786;49.466;11.068;2023-11-19T03:19:30;6.70;99.90
29917;DHT22;16786;49.466;11.068;2023-11-19T03:21:57;6.70;99.90
29917;DHT22;16786;49.466;11.068;2023-11-19T03:24:26;6.70;99.90
29917;DHT22;16786;49.466;11.068;2023-11-19T03:26:53;6.80;99.90
29917;DHT22;16786;49.466;11.068;2023-11-19T03:29:20;6.70;99.90
29917;DHT22;16786;49.466;11.068;2023-11-19T03:31:47;6.80;99.90
29917;DHT22;16786;49.466;11.068;2023-11-19T03:34:14;6.80;99.90
29917;DHT22;16786;49.466;11.068;2023-11-19T03:36:42;6.80;99.90
29917;DHT22;16786;49.466;11.068;2023-11-19T03:39:10;6.90;99.90
29917;DHT22;16786;49.466;11.068;2023-11-19T03:41:37;6.90;99.90
29917;DHT22;16786;49.466;11.068;2023-11-19T03:44:08;6.90;99.90
29917;DHT22;16786;49.466;11.068;2023-11-19T03:46:36;6.90;99.90
29917;DHT22;16786;49.466;11.068;2023-11-19T03:49:03;6.90;99.90
29917;DHT22;16786;49.466;11.068;2023-11-19T03:51:33;7.00;99.90
29917;DHT22;16786;49.466;11.068;2023-11-19T03:54:01;6.90;99.90
29917;DHT22;16786;49.466;11.068;2023-11-19T03:56:28;7.00;99.90
29917;DHT22;16786;49.466;11.068;2023-11-19T03:58:57;7.00;99.90
29917;DHT22;16786;49.466;11.068;2023-11-19T04:01:24;7.00;99.90
29917;DHT22;16786;49.466;11.068;2023-11-19T04:03:51;7.00;99.90
29917;DHT22;16786;49.466;11.068;2023-11-19T04:06:18;7.00;99.90
29917;DHT22;16786;49.466;11.068;2023-11-19T04:08:45;7.00;99.90
29917;DHT22;16786;49.466;11.068;2023-11-19T04:11:13;7.00;99.90
29917;DHT22;16786;49.466;11.068;2023-11-19T04:13:39;7.00;99.90
29917;DHT22;16786;49.466;11.068;2023-11-19T04:16:07;7.00;99.90
29917;DHT22;16786;49.466;11.068;2023-11-19T04:18:34;7.00;99.90
29917;DHT22;16786;49.466;11.068;2023-11-19T04:21:01;7.00;99.90
29917;DHT22;16786;49.466;11.068;2023-11-19T04:23:28;7.00;99.90
29917;DHT22;16786;49.466;11.068;2023-11-19T04:25:55;7.00;99.90
29917;DHT22;16786;49.466;11.068;2023-11-19T04:28:37;7.10;99.90
29917;DHT22;16786;49.466;11.068;2023-11-19T04:31:04;7.00;99.90
29917;DHT22;16786;49.466;11.068;2023-11-19T04:33:33;7.10;99.90
29917;DHT22;16786;49.466;11.068;2023-11-19T04:36:00;7.10;99.90
29917;DHT22;16786;49.466;11.068;2023-11-19T04:38:27;7.10;99.90
29917;DHT22;16786;49.466;11.068;2023-11-19T04:40:54;7.10;99.90
29917;DHT22;16786;49.466;11.068;2023-11-19T04:43:21;7.20;99.90
29917;DHT22;16786;49.466;11.068;2023-11-19T04:45:48;7.20;99.90
29917;DHT22;16786;49.466;11.068;2023-11-19T04:48:15;7.20;99.90
29917;DHT22;16786;49.466;11.068;2023-11-19T04:50:41;7.30;99.90
29917;DHT22;16786;49.466;11.068;2023-11-19T04:53:08;7.20;99.90
29917;DHT22;16786;49.466;11.068;2023-11-19T04:55:35;7.30;99.90
29917;DHT22;16786;49.466;11.068;2023-11-19T04:58:02;7.30;99.90
29917;DHT22;16786;49.466;11.068;2023-11-19T05:00:30;7.30;99.90
29917;DHT22;16786;49.466;11.068;2023-11-19T05:02:57;7.40;99.90
29917;DHT22;16786;49.466;11.068;2023-11-19T05:05:24;7.40;99.90
29917;DHT22;16786;49.466;11.068;2023-11-19T05:07:51;7.40;99.90
29917;DHT22;16786;49.466;11.068;2023-11-19T05:10:18;7.40;99.90
29917;DHT22;16786;49.466;11.068;2023-11-19T05:12:45;7.40;99.90
29917;DHT22;16786;49.466;11.068;2023-11-19T05:15:12;7.50;99.90
29917;DHT22;16786;49.466;11.068;2023-11-19T05:17:39;7.50;99.90
29917;DHT22;16786;49.466;11.068;2023-11-19T05:20:06;7.50;99.90
29917;DHT22;16786;49.466;11.068;2023-11-19T05:22:41;7.60;99.90
29917;DHT22;16786;49.466;11.068;2023-11-19T05:25:08;7.60;99.90
29917;DHT22;16786;49.466;11.068;2023-11-19T05:27:38;7.70;99.90
29917;DHT22;16786;49.466;11.068;2023-11-19T05:30:05;7.70;99.90
29917;DHT22;16786;49.466;11.068;2023-11-19T05:32:38;7.70;99.90
29917;DHT22;16786;49.466;11.068;2023-11-19T05:35:05;7.80;99.90
29917;DHT22;16786;49.466;11.068;2023-11-19T05:37:32;7.70;99.90
29917;DHT22;16786;49.466;11.068;2023-11-19T05:40:01;7.80;99.90
29917;DHT22;16786;49.466;11.068;2023-11-19T05:42:30;7.80;99.90
29917;DHT22;16786;49.466;11.068;2023-11-19T05:44:57;7.80;99.90
29917;DHT22;16786;49.466;11.068;2023-11-19T05:47:24;7.80;99.90
29917;DHT22;16786;49.466;11.068;2023-11-19T05:49:51;7.80;99.90
29917;DHT22;16786;49.466;11.068;2023-11-19T05:52:18;7.80;99.90
29917;DHT22;16786;49.466;11.068;2023-11-19T05:54:45;7.80;99.90
29917;DHT22;16786;49.466;11.068;2023-11-19T05:57:14;7.80;99.90
29917;DHT22;16786;49.466;11.068;2023-11-19T05:59:41;7.80;99.90
29917;DHT22;16786;49.466;11.068;2023-11-19T06:02:08;7.90;99.90
29917;DHT22;16786;49.466;11.068;2023-11-19T06:04:35;7.90;99.90
29917;DHT22;16786;49.466;11.068;2023-11-19T06:07:02;7.90;99.90
29917;DHT22;16786;49.466;11.068;2023-11-19T06:09:29;7.90;99.90
29917;DHT22;16786;49.466;11.068;2023-11-19T06:11:56;7.90;99.90
29917;DHT22;16786;49.466;11.068;2023-11-19T06:14:24;8.00;99.90
29917;DHT22;16786;49.466;11.068;2023-11-19T06:16:51;8.00;99.90
29917;DHT22;16786;49.466;11.068;2023-11-19T06:19:18;8.00;99.90
29917;DHT22;16786;49.466;11.068;2023-11-19T06:21:45;8.00;99.90
29917;DHT22;16786;49.466;11.068;2023-11-19T06:24:12;8.10;99.90
29917;DHT22;16786;49.466;11.068;2023-11-19T06:26:39;8.10;99.90
29917;DHT22;16786;49.466;11.068;2023-11-19T06:29:06;8.10;99.90
29917;DHT22;16786;49.466;11.068;2023-11-19T06:31:33;8.20;99.90
29917;DHT22;16786;49.466;11.068;2023-11-19T06:34:00;8.20;99.90
29917;DHT22;16786;49.466;11.068;2023-11-19T06:36:28;8.20;99.90
29917;DHT22;16786;49.466;11.068;2023-11-19T06:38:55;8.30;99.90
29917;DHT22;16786;49.466;11.068;2023-11-19T06:41:22;8.30;99.90
29917;DHT22;16786;49.466;11.068;2023-11-19T06:43:49;8.30;99.90
29917;DHT22;16786;49.466;11.068;2023-11-19T06:46:17;8.40;99.90
29917;DHT22;16786;49.466;11.068;2023-11-19T06:48:44;8.40;99.90
29917;DHT22;16786;49.466;11.068;2023-11-19T06:51:12;8.50;99.90
29917;DHT22;16786;49.466;11.068;2023-11-19T06:53:39;8.50;99.90
29917;DHT22;16786;49.466;11.068;2023-11-19T06:56:18;8.50;99.90
29917;DHT22;16786;49.466;11.068;2023-11-19T06:58:45;8.60;99.90
29917;DHT22;16786;49.466;11.068;2023-11-19T07:01:18;8.60;99.90
29917;DHT22;16786;49.466;11.068;2023-11-19T07:03:46;8.70;99.90
29917;DHT22;16786;49.466;11.068;2023-11-19T07:06:13;8.70;99.90
29917;DHT22;16786;49.466;11.068;2023-11-19T07:08:44;8.80;99.90
29917;DHT22;16786;49.466;11.068;2023-11-19T07:11:15;8.80;99.90
29917;DHT22;16786;49.466;11.068;2023-11-19T07:13:44;8.90;99.90
29917;DHT22;16786;49.466;11.068;2023-11-19T07:16:14;8.90;99.90
29917;DHT22;16786;49.466;11.068;2023-11-19T07:18:41;8.90;99.90
29917;DHT22;16786;49.466;11.068;2023-11-19T07:21:10;8.90;99.90
29917;DHT22;16786;49.466;11.068;2023-11-19T07:23:37;9.00;99.90
29917;DHT22;16786;49.466;11.068;2023-11-19T07:26:05;9.00;99.90
29917;DHT22;16786;49.466;11.068;2023-11-19T07:28:35;9.10;99.90
29917;DHT22;16786;49.466;11.068;2023-11-19T07:31:02;9.10;99.90
29917;DHT22;16786;49.466;11.068;2023-11-19T07:33:29;9.10;99.90
29917;DHT22;16786;49.466;11.068;2023-11-19T07:35:56;9.20;99.90
29917;DHT22;16786;49.466;11.068;2023-11-19T07:38:23;9.20;99.90
29917;DHT22;16786;49.466;11.068;2023-11-19T07:40:50;9.30;99.90
29917;DHT22;16786;49.466;11.068;2023-11-19T07:43:20;9.30;99.90
29917;DHT22;16786;49.466;11.068;2023-11-19T07:45:47;9.40;99.90
29917;DHT22;16786;49.466;11.068;2023-11-19T07:48:14;9.50;99.90
29917;DHT22;16786;49.466;11.068;2023-11-19T07:50:42;9.50;99.90
29917;DHT22;16786;49.466;11.068;2023-11-19T07:53:09;9.50;99.90
29917;DHT22;16786;49.466;11.068;2023-11-19T07:55:36;9.60;99.90
29917;DHT22;16786;49.466;11.068;2023-11-19T07:58:08;9.60;99.90
29917;DHT22;16786;49.466;11.068;2023-11-19T08:00:35;9.70;99.90
29917;DHT22;16786;49.466;11.068;2023-11-19T08:03:02;9.70;99.90
29917;DHT22;16786;49.466;11.068;2023-11-19T08:05:30;9.70;99.90
29917;DHT22;16786;49.466;11.068;2023-11-19T08:07:59;9.80;99.90
29917;DHT22;16786;49.466;11.068;2023-11-19T08:10:26;9.90;99.90
29917;DHT22;16786;49.466;11.068;2023-11-19T08:12:54;10.00;99.90
29917;DHT22;16786;49.466;11.068;2023-11-19T08:15:21;10.10;99.90
29917;DHT22;16786;49.466;11.068;2023-11-19T08:17:51;10.20;99.90
29917;DHT22;16786;49.466;11.068;2023-11-19T08:20:18;10.30;99.90
29917;DHT22;16786;49.466;11.068;2023-11-19T08:22:45;10.40;99.90
29917;DHT22;16786;49.466;11.068;2023-11-19T08:25:12;10.50;99.90
29917;DHT22;16786;49.466;11.068;2023-11-19T08:27:40;10.50;99.90
29917;DHT22;16786;49.466;11.068;2023-11-19T08:30:07;10.50;99.90
29917;DHT22;16786;49.466;11.068;2023-11-19T08:32:35;10.60;99.90
29917;DHT22;16786;49.466;11.068;2023-11-19T08:35:03;10.70;99.90
29917;DHT22;16786;49.466;11.068;2023-11-19T08:37:31;10.80;99.90
29917;DHT22;16786;49.466;11.068;2023-11-19T08:39:58;10.80;99.90
29917;DHT22;16786;49.466;11.068;2023-11-19T08:42:25;10.80;99.90
29917;DHT22;16786;49.466;11.068;2023-11-19T08:44:52;10.90;99.90
29917;DHT22;16786;49.466;11.068;2023-11-19T08:47:22;11.00;99.90
29917;DHT22;16786;49.466;11.068;2023-11-19T08:49:52;11.00;99.90
29917;DHT22;16786;49.466;11.068;2023-11-19T08:52:22;11.10;99.90
29917;DHT22;16786;49.466;11.068;2023-11-19T08:54:49;11.10;99.90
29917;DHT22;16786;49.466;11.068;2023-11-19T08:57:16;11.30;99.90
29917;DHT22;16786;49.466;11.068;2023-11-19T08:59:44;11.30;99.90
29917;DHT22;16786;49.466;11.068;2023-11-19T09:02:13;11.50;99.90
29917;DHT22;16786;49.466;11.068;2023-11-19T09:04:40;11.60;99.90
29917;DHT22;16786;49.466;11.068;2023-11-19T09:07:08;11.70;99.90
29917;DHT22;16786;49.466;11.068;2023-11-19T09:09:37;11.80;99.90
29917;DHT22;16786;49.466;11.068;2023-11-19T09:12:04;12.00;99.90
29917;DHT22;16786;49.466;11.068;2023-11-19T09:14:32;12.10;99.90
29917;DHT22;16786;49.466;11.068;2023-11-19T09:16:59;12.20;99.90
29917;DHT22;16786;49.466;11.068;2023-11-19T09:19:26;12.40;99.90
29917;DHT22;16786;49.466;11.068;2023-11-19T09:21:54;12.50;99.90
29917;DHT22;16786;49.466;11.068;2023-11-19T09:24:21;12.60;99.90
29917;DHT22;16786;49.466;11.068;2023-11-19T09:26:48;12.70;99.90
29917;DHT22;16786;49.466;11.068;2023-11-19T09:29:15;12.80;99.90
29917;DHT22;16786;49.466;11.068;2023-11-19T09:31:43;12.80;99.90
29917;DHT22;16786;49.466;11.068;2023-11-19T09:34:10;12.90;99.90
29917;DHT22;16786;49.466;11.068;2023-11-19T09:36:37;12.90;99.90
29917;DHT22;16786;49.466;11.068;2023-11-19T09:39:05;13.00;99.90
29917;DHT22;16786;49.466;11.068;2023-11-19T09:41:35;13.00;99.90
29917;DHT22;16786;49.466;11.068;2023-11-19T09:44:02;13.00;99.90
29917;DHT22;16786;49.466;11.068;2023-11-19T09:46:30;13.10;99.90
29917;DHT22;16786;49.466;11.068;2023-11-19T09:48:57;13.00;99.90
29917;DHT22;16786;49.466;11.068;2023-11-19T09:51:26;13.00;99.90
29917;DHT22;16786;49.466;11.068;2023-11-19T09:53:53;12.90;99.90
29917;DHT22;16786;49.466;11.068;2023-11-19T09:56:20;12.90;99.90
29917;DHT22;16786;49.466;11.068;2023-11-19T09:58:49;12.90;99.90
29917;DHT22;16786;49.466;11.068;2023-11-19T10:01:16;12.90;99.90
29917;DHT22;16786;49.466;11.068;2023-11-19T10:03:47;12.90;99.90
29917;DHT22;16786;49.466;11.068;2023-11-19T10:06:15;13.00;99.90
29917;DHT22;16786;49.466;11.068;2023-11-19T10:08:43;13.10;99.90
29917;DHT22;16786;49.466;11.068;2023-11-19T10:11:10;13.10;99.90
29917;DHT22;16786;49.466;11.068;2023-11-19T10:13:39;13.10;99.90
29917;DHT22;16786;49.466;11.068;2023-11-19T10:16:08;13.20;99.90
29917;DHT22;16786;49.466;11.068;2023-11-19T10:18:35;13.20;99.90
29917;DHT22;16786;49.466;11.068;2023-11-19T10:21:07;13.20;99.90
29917;DHT22;16786;49.466;11.068;2023-11-19T10:23:50;13.30;99.90
29917;DHT22;16786;49.466;11.068;2023-11-19T10:26:19;13.20;99.90
29917;DHT22;16786;49.466;11.068;2023-11-19T10:28:47;13.20;99.90
29917;DHT22;16786;49.466;11.068;2023-11-19T10:31:19;13.00;99.90
29917;DHT22;16786;49.466;11.068;2023-11-19T10:33:46;13.00;99.90
29917;DHT22;16786;49.466;11.068;2023-11-19T10:36:14;12.90;99.90
29917;DHT22;16786;49.466;11.068;2023-11-19T10:38:54;12.90;99.90
29917;DHT22;16786;49.466;11.068;2023-11-19T10:41:31;12.90;99.90
29917;DHT22;16786;49.466;11.068;2023-11-19T10:43:59;12.80;99.90
29917;DHT22;16786;49.466;11.068;2023-11-19T10:46:42;12.80;99.90
29917;DHT22;16786;49.466;11.068;2023-11-19T10:49:10;12.60;99.90
29917;DHT22;16786;49.466;11.068;2023-11-19T10:51:44;12.60;99.90
29917;DHT22;16786;49.466;11.068;2023-11-19T10:54:15;12.80;99.90
29917;DHT22;16786;49.466;11.068;2023-11-19T10:56:52;13.00;99.90
29917;DHT22;16786;49.466;11.068;2023-11-19T10:59:21;13.30;99.90
29917;DHT22;16786;49.466;11.068;2023-11-19T11:01:53;13.70;99.90
29917;DHT22;16786;49.466;11.068;2023-11-19T11:04:25;14.20;99.90
29917;DHT22;16786;49.466;11.068;2023-11-19T11:06:58;14.30;99.90
29917;DHT22;16786;49.466;11.068;2023-11-19T11:09:27;14.60;99.90
29917;DHT22;16786;49.466;11.068;2023-11-19T11:11:55;14.70;99.90
29917;DHT22;16786;49.466;11.068;2023-11-19T11:14:24;14.70;99.90
29917;DHT22;16786;49.466;11.068;2023-11-19T11:16:53;14.80;99.90
29917;DHT22;16786;49.466;11.068;2023-11-19T11:19:20;14.60;99.90
29917;DHT22;16786;49.466;11.068;2023-11-19T11:21:52;14.20;99.90
29917;DHT22;16786;49.466;11.068;2023-11-19T11:24:32;14.10;99.90
29917;DHT22;16786;49.466;11.068;2023-11-19T11:27:17;14.30;99.90
29917;DHT22;16786;49.466;11.068;2023-11-19T11:30:33;14.40;99.90
29917;DHT22;16786;49.466;11.068;2023-11-19T11:33:19;14.60;99.90
29917;DHT22;16786;49.466;11.068;2023-11-19T11:36:19;14.80;99.90
29917;DHT22;16786;49.466;11.068;2023-11-19T11:38:49;14.70;99.90
29917;DHT22;16786;49.466;11.068;2023-11-19T11:41:21;14.70;99.90
29917;DHT22;16786;49.466;11.068;2023-11-19T11:43:55;14.70;99.90
29917;DHT22;16786;49.466;11.068;2023-11-19T11:49:01;15.20;99.90
29917;DHT22;16786;49.466;11.068;2023-11-19T11:54:26;15.10;99.90
29917;DHT22;16786;49.466;11.068;2023-11-19T11:57:11;14.70;99.90
29917;DHT22;16786;49.466;11.068;2023-11-19T11:59:46;14.60;99.90
29917;DHT22;16786;49.466;11.068;2023-11-19T12:02:19;14.40;99.90
29917;DHT22;16786;49.466;11.068;2023-11-19T12:04:50;14.40;99.90
29917;DHT22;16786;49.466;11.068;2023-11-19T12:07:20;14.30;99.90
29917;DHT22;16786;49.466;11.068;2023-11-19T12:10:09;14.10;99.90
29917;DHT22;16786;49.466;11.068;2023-11-19T12:12:39;14.10;99.90
29917;DHT22;16786;49.466;11.068;2023-11-19T12:15:08;14.00;99.90
29917;DHT22;16786;49.466;11.068;2023-11-19T12:17:49;13.90;99.90
29917;DHT22;16786;49.466;11.068;2023-11-19T12:20:19;13.90;99.90
29917;DHT22;16786;49.466;11.068;2023-11-19T12:22:49;13.90;99.90
29917;DHT22;16786;49.466;11.068;2023-11-19T12:25:18;13.90;99.90
29917;DHT22;16786;49.466;11.068;2023-11-19T12:27:52;14.00;99.90
29917;DHT22;16786;49.466;11.068;2023-11-19T12:30:24;14.20;99.90
29917;DHT22;16786;49.466;11.068;2023-11-19T12:32:53;14.40;99.90
29917;DHT22;16786;49.466;11.068;2023-11-19T12:35:22;15.40;99.90
29917;DHT22;16786;49.466;11.068;2023-11-19T12:37:50;16.30;99.90
29917;DHT22;16786;49.466;11.068;2023-11-19T12:40:23;16.70;99.90
29917;DHT22;16786;49.466;11.068;2023-11-19T12:42:52;16.80;99.90
29917;DHT22;16786;49.466;11.068;2023-11-19T12:45:20;17.00;99.90
29917;DHT22;16786;49.466;11.068;2023-11-19T12:47:48;17.00;99.90
29917;DHT22;16786;49.466;11.068;2023-11-19T12:50:17;17.00;99.90
29917;DHT22;16786;49.466;11.068;2023-11-19T12:52:57;16.90;99.90
29917;DHT22;16786;49.466;11.068;2023-11-19T12:55:29;17.00;99.90
29917;DHT22;16786;49.466;11.068;2023-11-19T12:57:57;16.80;99.90
29917;DHT22;16786;49.466;11.068;2023-11-19T13:00:27;16.40;99.90
29917;DHT22;16786;49.466;11.068;2023-11-19T13:02:55;16.10;99.90
29917;DHT22;16786;49.466;11.068;2023-11-19T13:05:33;16.30;99.90
29917;DHT22;16786;49.466;11.068;2023-11-19T13:08:04;16.80;99.90
29917;DHT22;16786;49.466;11.068;2023-11-19T13:10:33;17.50;99.90
29917;DHT22;16786;49.466;11.068;2023-11-19T13:13:04;17.90;99.90
29917;DHT22;16786;49.466;11.068;2023-11-19T13:15:35;18.00;99.90
29917;DHT22;16786;49.466;11.068;2023-11-19T13:18:03;18.10;99.90
29917;DHT22;16786;49.466;11.068;2023-11-19T13:20:30;18.20;99.90
29917;DHT22;16786;49.466;11.068;2023-11-19T13:23:01;18.30;99.90
29917;DHT22;16786;49.466;11.068;2023-11-19T13:25:29;18.00;99.90
29917;DHT22;16786;49.466;11.068;2023-11-19T13:27:56;17.60;99.90
29917;DHT22;16786;49.466;11.068;2023-11-19T13:30:25;18.10;99.90
29917;DHT22;16786;49.466;11.068;2023-11-19T13:32:53;18.50;99.90
29917;DHT22;16786;49.466;11.068;2023-11-19T13:35:22;18.70;99.90
29917;DHT22;16786;49.466;11.068;2023-11-19T13:37:49;19.40;99.90
29917;DHT22;16786;49.466;11.068;2023-11-19T13:40:18;20.20;99.90
29917;DHT22;16786;49.466;11.068;2023-11-19T13:42:46;19.90;99.90
29917;DHT22;16786;49.466;11.068;2023-11-19T13:45:14;20.10;99.90
29917;DHT22;16786;49.466;11.068;2023-11-19T13:47:44;20.50;99.90
29917;DHT22;16786;49.466;11.068;2023-11-19T13:50:15;20.80;99.90
29917;DHT22;16786;49.466;11.068;2023-11-19T13:52:47;21.00;99.90
29917;DHT22;16786;49.466;11.068;2023-11-19T13:55:14;20.80;99.90
29917;DHT22;16786;49.466;11.068;2023-11-19T13:57:42;20.00;99.90
29917;DHT22;16786;49.466;11.068;2023-11-19T14:00:11;19.00;99.90
29917;DHT22;16786;49.466;11.068;2023-11-19T14:02:49;18.10;99.90
29917;DHT22;16786;49.466;11.068;2023-11-19T14:05:17;17.60;99.90
29917;DHT22;16786;49.466;11.068;2023-11-19T14:08:05;18.10;99.90
29917;DHT22;16786;49.466;11.068;2023-11-19T14:10:51;19.30;99.90
29917;DHT22;16786;49.466;11.068;2023-11-19T14:13:19;20.10;99.90
29917;DHT22;16786;49.466;11.068;2023-11-19T14:15:46;20.80;99.90
29917;DHT22;16786;49.466;11.068;2023-11-19T14:18:16;21.10;99.90
29917;DHT22;16786;49.466;11.068;2023-11-19T14:20:43;21.80;99.90
29917;DHT22;16786;49.466;11.068;2023-11-19T14:23:11;21.20;99.90
29917;DHT22;16786;49.466;11.068;2023-11-19T14:25:38;21.00;99.90
29917;DHT22;16786;49.466;11.068;2023-11-19T14:28:05;21.00;99.90
29917;DHT22;16786;49.466;11.068;2023-11-19T14:30:33;20.40;99.90
29917;DHT22;16786;49.466;11.068;2023-11-19T14:33:01;21.00;99.90
29917;DHT22;16786;49.466;11.068;2023-11-19T14:35:30;21.00;99.90
29917;DHT22;16786;49.466;11.068;2023-11-19T14:37:57;20.40;99.90
29917;DHT22;16786;49.466;11.068;2023-11-19T14:40:24;20.60;99.90
29917;DHT22;16786;49.466;11.068;2023-11-19T14:42:54;21.10;99.90
29917;DHT22;16786;49.466;11.068;2023-11-19T14:45:21;20.90;99.90
29917;DHT22;16786;49.466;11.068;2023-11-19T14:47:49;20.50;99.90
29917;DHT22;16786;49.466;11.068;2023-11-19T14:50:16;20.10;99.90
29917;DHT22;16786;49.466;11.068;2023-11-19T14:52:43;20.10;99.90
29917;DHT22;16786;49.466;11.068;2023-11-19T14:55:10;19.70;99.90
29917;DHT22;16786;49.466;11.068;2023-11-19T14:57:38;19.20;99.90
29917;DHT22;16786;49.466;11.068;2023-11-19T15:00:06;19.20;99.90
29917;DHT22;16786;49.466;11.068;2023-11-19T15:02:40;18.60;99.90
29917;DHT22;16786;49.466;11.068;2023-11-19T15:05:08;18.50;99.90
29917;DHT22;16786;49.466;11.068;2023-11-19T15:07:38;17.50;99.90
29917;DHT22;16786;49.466;11.068;2023-11-19T15:10:07;16.80;99.90
29917;DHT22;16786;49.466;11.068;2023-11-19T15:12:39;16.10;99.90
29917;DHT22;16786;49.466;11.068;2023-11-19T15:15:08;15.50;99.90
29917;DHT22;16786;49.466;11.068;2023-11-19T15:18:02;14.90;99.90
29917;DHT22;16786;49.466;11.068;2023-11-19T15:20:29;14.40;99.90
29917;DHT22;16786;49.466;11.068;2023-11-19T15:22:59;14.20;99.90
29917;DHT22;16786;49.466;11.068;2023-11-19T15:25:26;14.00;99.90
29917;DHT22;16786;49.466;11.068;2023-11-19T15:27:53;13.70;99.90
29917;DHT22;16786;49.466;11.068;2023-11-19T15:30:21;13.60;99.90
29917;DHT22;16786;49.466;11.068;2023-11-19T15:32:49;13.50;99.90
29917;DHT22;16786;49.466;11.068;2023-11-19T15:35:16;13.40;99.90
29917;DHT22;16786;49.466;11.068;2023-11-19T15:37:43;13.20;99.90
29917;DHT22;16786;49.466;11.068;2023-11-19T15:40:11;13.10;99.90
29917;DHT22;16786;49.466;11.068;2023-11-19T15:42:40;13.00;99.90
29917;DHT22;16786;49.466;11.068;2023-11-19T15:45:08;12.90;99.90